Lake Como, Florida
Current Conditions -  °F | °C
As of 9:35 AM on Monday 26 Jan 2015 (Local Time) from K28J Reporting Station
Clear Clear  
Wind Chill: 55°   Ceiling: Unl
Heat Index: 55°   Visibility: 10mi
Dew Point: 50°   Wind: 13mph
Humidity: 82%   Direction: 310°NW
Pressure: 29.88"   Gusts: 20mph
Location:  29.48°N, 81.57°W
Report Text: K28J 261435Z AUTO 31011G17KT 10SM CLR 13/10 A2988 RMK AO2
Loading
Personal Weather Stations






























Interactive Weather Map New forecast layout! Learn more

10-Day Weather Forecast

Advertisements
Track Severe Weather on mobile